createdAt,value
2018-01-20T00:00:20.495Z,2.33
2018-01-20T00:01:20.482Z,2.33
2018-01-20T00:02:20.466Z,2.32
2018-01-20T00:03:20.450Z,2.35
2018-01-20T00:04:20.433Z,2.33
2018-01-20T00:05:20.419Z,2.29
2018-01-20T00:06:20.403Z,2.32
2018-01-20T00:07:20.388Z,2.36
2018-01-20T00:08:20.373Z,2.29
2018-01-20T00:09:20.357Z,2.38
2018-01-20T00:10:20.342Z,2.29
2018-01-20T00:11:20.326Z,2.38
2018-01-20T00:12:20.309Z,2.32
2018-01-20T00:13:20.295Z,2.38
2018-01-20T00:14:20.280Z,2.43
2018-01-20T00:15:20.265Z,2.49
2018-01-20T00:16:20.248Z,2.50
2018-01-20T00:17:20.437Z,2.44
2018-01-20T00:18:20.218Z,2.47
2018-01-20T00:19:20.203Z,2.49
2018-01-20T00:20:20.187Z,2.54
2018-01-20T00:21:20.172Z,2.53
2018-01-20T00:22:20.157Z,2.51
2018-01-20T00:23:20.142Z,2.49
2018-01-20T00:24:20.126Z,2.60
2018-01-20T00:25:20.112Z,2.56
2018-01-20T00:26:20.096Z,2.60
2018-01-20T00:27:20.081Z,2.57
2018-01-20T00:28:20.064Z,2.57
2018-01-20T00:29:20.050Z,2.60
2018-01-20T00:30:20.036Z,2.61
2018-01-20T00:31:20.021Z,2.62
2018-01-20T00:32:20.006Z,2.56
2018-01-20T00:33:19.990Z,2.57
2018-01-20T00:34:19.976Z,2.65
2018-01-20T00:35:19.961Z,2.54
2018-01-20T00:36:19.946Z,2.62
2018-01-20T00:37:19.938Z,2.61
2018-01-20T00:38:20.119Z,2.64
2018-01-20T00:39:19.902Z,2.65
2018-01-20T00:40:19.892Z,2.65
2018-01-20T00:41:19.871Z,2.68
2018-01-20T00:42:19.856Z,2.64
2018-01-20T00:43:19.841Z,2.71
2018-01-20T00:44:19.827Z,2.65
2018-01-20T00:45:19.813Z,2.54
2018-01-20T00:46:19.798Z,2.44
2018-01-20T00:47:19.985Z,2.32
2018-01-20T00:48:19.768Z,2.28
2018-01-20T00:49:19.752Z,2.22
2018-01-20T00:50:19.744Z,2.13
2018-01-20T00:51:19.724Z,2.08
2018-01-20T00:52:19.711Z,2.11
2018-01-20T00:53:19.700Z,2.22
2018-01-20T00:54:19.678Z,2.13
2018-01-20T00:55:19.663Z,2.17
2018-01-20T00:56:19.648Z,2.15
2018-01-20T00:57:19.632Z,2.20
2018-01-20T00:58:19.618Z,2.20
2018-01-20T00:59:20.008Z,2.22
2018-01-20T01:00:19.587Z,2.25
2018-01-20T01:01:19.573Z,2.24
2018-01-20T01:02:19.557Z,2.26
2018-01-20T01:03:19.543Z,2.26
2018-01-20T01:04:19.528Z,2.31
2018-01-20T01:05:19.514Z,2.31
2018-01-20T01:06:19.498Z,2.33
2018-01-20T01:07:19.483Z,2.32
2018-01-20T01:08:19.468Z,2.33
2018-01-20T01:09:19.453Z,2.42
2018-01-20T01:10:19.438Z,2.32
2018-01-20T01:11:19.424Z,2.32
2018-01-20T01:12:19.415Z,2.33
2018-01-20T01:13:19.391Z,2.32
2018-01-20T01:14:19.377Z,2.39
2018-01-20T01:15:19.362Z,2.31
2018-01-20T01:16:19.347Z,2.31
2018-01-20T01:17:19.331Z,2.31
2018-01-20T01:18:19.316Z,2.31
2018-01-20T01:19:19.302Z,2.32
2018-01-20T01:20:19.488Z,2.44
2018-01-20T01:21:19.271Z,2.35
2018-01-20T01:22:19.458Z,2.43
2018-01-20T01:23:19.242Z,2.49
2018-01-20T01:24:19.225Z,2.50
2018-01-20T01:25:19.210Z,2.46
2018-01-20T01:26:19.196Z,2.50
2018-01-20T01:27:19.184Z,2.50
2018-01-20T01:28:19.368Z,2.46
2018-01-20T01:29:19.150Z,2.54
2018-01-20T01:30:19.135Z,2.56
2018-01-20T01:31:19.121Z,2.54
2018-01-20T01:32:19.112Z,2.51
2018-01-20T01:33:19.090Z,2.56
2018-01-20T01:34:19.074Z,2.56
2018-01-20T01:35:19.061Z,2.57
2018-01-20T01:36:19.045Z,2.60
2018-01-20T01:37:19.029Z,2.56
2018-01-20T01:38:19.015Z,2.57
2018-01-20T01:39:19.000Z,2.54
2018-01-20T01:40:18.984Z,2.57
2018-01-20T01:41:18.969Z,2.62
2018-01-20T01:42:18.958Z,2.62
2018-01-20T01:43:18.940Z,2.68
2018-01-20T01:44:18.923Z,2.60
2018-01-20T01:45:18.909Z,2.56
2018-01-20T01:46:18.894Z,2.62
2018-01-20T01:47:18.879Z,2.64
2018-01-20T01:48:18.876Z,2.57
2018-01-20T01:49:18.848Z,2.60
2018-01-20T01:50:18.833Z,2.61
2018-01-20T01:51:18.821Z,2.56
2018-01-20T01:52:18.804Z,2.61
2018-01-20T01:53:18.788Z,2.64
2018-01-20T01:54:18.778Z,2.69
2018-01-20T01:55:18.758Z,2.62
2018-01-20T01:56:18.743Z,2.71
2018-01-20T01:57:18.731Z,2.67
2018-01-20T01:58:18.714Z,2.67
2018-01-20T01:59:18.700Z,2.64
2018-01-20T02:00:18.683Z,2.67
2018-01-20T02:01:18.871Z,2.69
2018-01-20T02:02:18.655Z,2.69
2018-01-20T02:03:18.639Z,2.75
2018-01-20T02:04:18.623Z,2.67
2018-01-20T02:05:18.608Z,2.72
2018-01-20T02:06:18.595Z,2.65
2018-01-20T02:07:18.581Z,2.79
2018-01-20T02:08:18.563Z,2.72
2018-01-20T02:09:18.548Z,2.71
2018-01-20T02:10:18.534Z,2.80
2018-01-20T02:11:18.519Z,2.79
2018-01-20T02:12:18.504Z,2.68
2018-01-20T02:13:18.488Z,2.71
2018-01-20T02:14:18.473Z,2.72
2018-01-20T02:15:18.465Z,2.80
2018-01-20T02:16:18.444Z,2.69
2018-01-20T02:17:18.430Z,2.77
2018-01-20T02:18:18.414Z,2.72
2018-01-20T02:19:18.398Z,2.74
2018-01-20T02:20:18.383Z,2.79
2018-01-20T02:21:18.369Z,2.74
2018-01-20T02:22:18.554Z,2.79
2018-01-20T02:23:18.338Z,2.75
2018-01-20T02:24:18.322Z,2.71
2018-01-20T02:25:18.311Z,2.71
2018-01-20T02:26:18.293Z,2.72
2018-01-20T02:27:18.277Z,2.71
2018-01-20T02:28:18.261Z,2.67
2018-01-20T02:29:18.509Z,2.79
2018-01-20T02:30:18.233Z,2.75
2018-01-20T02:31:18.217Z,2.77
2018-01-20T02:32:18.201Z,2.79
2018-01-20T02:33:18.186Z,2.74
2018-01-20T02:34:18.172Z,2.77
2018-01-20T02:35:18.156Z,2.74
2018-01-20T02:36:18.145Z,2.67
2018-01-20T02:37:18.124Z,2.71
2018-01-20T02:38:18.113Z,2.75
2018-01-20T02:39:18.095Z,2.82
2018-01-20T02:40:18.078Z,2.67
2018-01-20T02:41:18.064Z,2.68
2018-01-20T02:42:18.049Z,2.71
2018-01-20T02:43:18.034Z,2.77
2018-01-20T02:44:18.220Z,2.69
2018-01-20T02:45:18.003Z,2.74
2018-01-20T02:46:17.987Z,2.74
2018-01-20T02:47:17.974Z,2.65
2018-01-20T02:48:17.957Z,2.74
2018-01-20T02:49:17.943Z,2.64
2018-01-20T02:50:18.129Z,2.69
2018-01-20T02:51:17.913Z,2.65
2018-01-20T02:52:17.897Z,2.64
2018-01-20T02:53:17.882Z,2.69
2018-01-20T02:54:17.868Z,2.68
2018-01-20T02:55:17.853Z,2.67
2018-01-20T02:56:17.835Z,2.72
2018-01-20T02:57:17.821Z,2.68
2018-01-20T02:58:17.805Z,2.65
2018-01-20T02:59:17.790Z,2.68
2018-01-20T03:00:17.774Z,2.64
2018-01-20T03:01:17.768Z,2.71
2018-01-20T03:02:17.746Z,2.64
2018-01-20T03:03:17.730Z,2.57
2018-01-20T03:04:17.714Z,2.61
2018-01-20T03:05:17.699Z,2.61
2018-01-20T03:06:17.684Z,2.69
2018-01-20T03:07:17.670Z,2.54
2018-01-20T03:08:17.653Z,2.54
2018-01-20T03:09:17.637Z,2.61
2018-01-20T03:10:17.627Z,2.53
2018-01-20T03:11:17.609Z,2.57
2018-01-20T03:12:17.593Z,2.56
2018-01-20T03:13:17.577Z,2.64
2018-01-20T03:14:17.562Z,2.64
2018-01-20T03:15:17.547Z,2.64
2018-01-20T03:16:17.532Z,2.67
2018-01-20T03:17:17.516Z,2.68
2018-01-20T03:18:17.501Z,2.69
2018-01-20T03:19:17.487Z,2.68
2018-01-20T03:20:17.471Z,2.79
2018-01-20T03:21:17.455Z,2.79
2018-01-20T03:22:17.440Z,2.61
2018-01-20T03:23:17.435Z,2.79
2018-01-20T03:24:17.411Z,2.68
2018-01-20T03:25:17.396Z,2.79
2018-01-20T03:26:17.384Z,2.75
2018-01-20T03:27:17.365Z,2.64
2018-01-20T03:28:17.349Z,2.80
2018-01-20T03:29:17.334Z,2.71
2018-01-20T03:30:17.320Z,2.71
2018-01-20T03:31:17.306Z,2.72
2018-01-20T03:32:17.299Z,2.82
2018-01-20T03:33:17.476Z,2.82
2018-01-20T03:34:17.268Z,2.77
2018-01-20T03:35:17.245Z,2.83
2018-01-20T03:36:17.229Z,2.80
2018-01-20T03:37:17.214Z,2.77
2018-01-20T03:38:17.200Z,2.77
2018-01-20T03:39:17.185Z,2.82
2018-01-20T03:40:17.169Z,2.83
2018-01-20T03:41:17.154Z,2.80
2018-01-20T03:42:17.140Z,2.87
2018-01-20T03:43:17.124Z,2.86
2018-01-20T03:44:17.109Z,2.90
2018-01-20T03:45:17.095Z,2.86
2018-01-20T03:46:17.282Z,2.90
2018-01-20T03:47:17.065Z,2.87
2018-01-20T03:48:17.051Z,2.90
2018-01-20T03:49:17.041Z,2.82
2018-01-20T03:50:17.021Z,2.93
2018-01-20T03:51:17.007Z,2.79
2018-01-20T03:52:17.192Z,2.89
2018-01-20T03:53:17.034Z,2.93
2018-01-20T03:54:16.963Z,2.86
2018-01-20T03:55:16.948Z,2.92
2018-01-20T03:56:16.932Z,2.83
2018-01-20T03:57:16.917Z,2.82
2018-01-20T03:58:16.903Z,2.82
2018-01-20T03:59:16.888Z,2.82
2018-01-20T04:00:16.874Z,2.80
2018-01-20T04:01:16.857Z,2.74
2018-01-20T04:02:16.843Z,2.82
2018-01-20T04:03:16.827Z,2.83
2018-01-20T04:04:16.812Z,2.82
2018-01-20T04:05:16.799Z,2.77
2018-01-20T04:06:17.187Z,2.77
2018-01-20T04:07:16.769Z,2.80
2018-01-20T04:08:16.955Z,2.79
2018-01-20T04:09:16.739Z,2.83
2018-01-20T04:10:16.723Z,2.83
2018-01-20T04:11:16.710Z,2.80
2018-01-20T04:12:16.693Z,2.83
2018-01-20T04:13:16.678Z,2.80
2018-01-20T04:14:16.866Z,2.77
2018-01-20T04:15:16.649Z,2.82
2018-01-20T04:16:16.634Z,2.77
2018-01-20T04:17:16.618Z,2.83
2018-01-20T04:18:16.604Z,2.74
2018-01-20T04:19:16.589Z,2.80
2018-01-20T04:20:16.573Z,2.74
2018-01-20T04:21:16.559Z,2.79
2018-01-20T04:22:16.544Z,2.79
2018-01-20T04:23:16.529Z,2.80
2018-01-20T04:24:16.513Z,2.83
2018-01-20T04:25:16.499Z,2.79
2018-01-20T04:26:16.488Z,2.74
2018-01-20T04:27:16.671Z,2.77
2018-01-20T04:28:16.452Z,2.80
2018-01-20T04:29:16.438Z,2.80
2018-01-20T04:30:16.423Z,2.74
2018-01-20T04:31:16.410Z,2.87
2018-01-20T04:32:16.393Z,2.85
2018-01-20T04:33:16.783Z,2.82
2018-01-20T04:34:16.364Z,2.82
2018-01-20T04:35:16.551Z,2.86
2018-01-20T04:36:16.332Z,2.89
2018-01-20T04:37:16.319Z,2.86
2018-01-20T04:38:16.305Z,2.86
2018-01-20T04:39:16.291Z,2.89
2018-01-20T04:40:16.273Z,2.82
2018-01-20T04:41:16.258Z,2.93
2018-01-20T04:42:16.244Z,2.87
2018-01-20T04:43:16.229Z,2.83
2018-01-20T04:44:16.213Z,2.80
2018-01-20T04:45:16.200Z,2.95
2018-01-20T04:46:16.185Z,2.93
2018-01-20T04:47:16.169Z,2.93
2018-01-20T04:48:16.153Z,2.97
2018-01-20T04:49:16.139Z,3.03
2018-01-20T04:50:16.124Z,2.93
2018-01-20T04:51:16.118Z,2.93
2018-01-20T04:52:16.095Z,2.95
2018-01-20T04:53:16.079Z,2.95
2018-01-20T04:54:16.067Z,2.98
2018-01-20T04:55:16.052Z,2.98
2018-01-20T04:56:16.035Z,3.04
2018-01-20T04:57:16.022Z,3.01
2018-01-20T04:58:16.007Z,2.95
2018-01-20T04:59:15.992Z,3.05
2018-01-20T05:00:15.977Z,3.04
2018-01-20T05:01:15.961Z,3.07
2018-01-20T05:02:15.947Z,2.98
2018-01-20T05:03:15.933Z,3.01
2018-01-20T05:04:15.918Z,3.01
2018-01-20T05:05:15.903Z,2.98
2018-01-20T05:06:15.890Z,2.97
2018-01-20T05:07:15.875Z,3.05
2018-01-20T05:08:15.859Z,2.98
2018-01-20T05:09:15.844Z,3.03
2018-01-20T05:10:15.830Z,3.00
2018-01-20T05:11:15.816Z,2.95
2018-01-20T05:12:15.799Z,2.97
2018-01-20T05:13:15.786Z,2.95
2018-01-20T05:14:15.771Z,3.01
2018-01-20T05:15:15.755Z,2.97
2018-01-20T05:16:15.942Z,2.93
2018-01-20T05:17:15.725Z,3.01
2018-01-20T05:18:15.710Z,2.97
2018-01-20T05:19:15.696Z,2.97
2018-01-20T05:20:15.681Z,3.00
2018-01-20T05:21:15.666Z,2.95
2018-01-20T05:22:15.650Z,2.93
2018-01-20T05:23:15.635Z,2.93
2018-01-20T05:24:15.620Z,2.93
2018-01-20T05:25:15.605Z,2.82
2018-01-20T05:26:15.590Z,2.86
2018-01-20T05:27:15.577Z,2.86
2018-01-20T05:28:15.762Z,2.87
2018-01-20T05:29:15.546Z,2.83
2018-01-20T05:30:15.532Z,2.86
2018-01-20T05:31:15.518Z,2.83
2018-01-20T05:32:15.501Z,2.83
2018-01-20T05:33:15.486Z,2.86
2018-01-20T05:34:15.471Z,2.89
2018-01-20T05:35:15.456Z,2.85
2018-01-20T05:36:15.443Z,2.90
2018-01-20T05:37:15.428Z,2.86
2018-01-20T05:38:15.413Z,2.89
2018-01-20T05:39:15.399Z,2.89
2018-01-20T05:40:15.382Z,2.92
2018-01-20T05:41:15.378Z,2.95
2018-01-20T05:42:15.353Z,2.97
2018-01-20T05:43:15.338Z,3.01
2018-01-20T05:44:15.323Z,3.05
2018-01-20T05:45:15.307Z,3.00
2018-01-20T05:46:15.293Z,2.92
2018-01-20T05:47:15.278Z,3.00
2018-01-20T05:48:15.263Z,2.97
2018-01-20T05:49:15.248Z,3.04
2018-01-20T05:50:15.234Z,3.03
2018-01-20T05:51:15.220Z,2.98
2018-01-20T05:52:15.204Z,2.92
2018-01-20T05:53:15.189Z,2.95
2018-01-20T05:54:15.175Z,2.93
2018-01-20T05:55:15.161Z,2.92
2018-01-20T05:56:15.144Z,2.85
2018-01-20T05:57:15.131Z,2.86
2018-01-20T05:58:15.116Z,2.89
2018-01-20T05:59:15.100Z,2.85
2018-01-20T06:00:15.086Z,2.83
2018-01-20T06:01:15.070Z,2.79
2018-01-20T06:02:15.056Z,2.85
2018-01-20T06:03:15.042Z,2.90
2018-01-20T06:04:15.031Z,2.89
2018-01-20T06:05:15.016Z,2.85
2018-01-20T06:06:14.997Z,2.83
2018-01-20T06:07:14.989Z,2.87
2018-01-20T06:08:14.966Z,2.85
2018-01-20T06:09:14.951Z,2.72
2018-01-20T06:10:14.937Z,2.83
2018-01-20T06:11:14.922Z,2.82
2018-01-20T06:12:14.906Z,2.82
2018-01-20T06:13:14.892Z,2.79
2018-01-20T06:14:14.880Z,2.87
2018-01-20T06:15:15.065Z,2.83
2018-01-20T06:16:14.845Z,2.77
2018-01-20T06:17:14.834Z,2.89
2018-01-20T06:18:14.818Z,2.80
2018-01-20T06:19:14.802Z,2.80
2018-01-20T06:20:14.786Z,2.79
2018-01-20T06:21:14.772Z,2.79
2018-01-20T06:22:14.757Z,2.72
2018-01-20T06:23:14.741Z,2.80
2018-01-20T06:24:14.727Z,2.80
2018-01-20T06:25:14.712Z,2.75
2018-01-20T06:26:14.696Z,2.69
2018-01-20T06:27:14.682Z,2.57
2018-01-20T06:28:14.666Z,2.79
2018-01-20T06:29:14.652Z,2.75
2018-01-20T06:30:14.636Z,2.71
2018-01-20T06:31:14.621Z,2.72
2018-01-20T06:32:14.607Z,2.74
2018-01-20T06:33:14.591Z,2.74
2018-01-20T06:34:14.577Z,2.77
2018-01-20T06:35:14.562Z,2.77
2018-01-20T06:36:14.545Z,2.77
2018-01-20T06:37:14.530Z,2.82
2018-01-20T06:38:14.516Z,2.86
2018-01-20T06:39:14.501Z,2.83
2018-01-20T06:40:14.486Z,2.85
2018-01-20T06:41:14.472Z,2.87
2018-01-20T06:42:14.456Z,2.82
2018-01-20T06:43:14.442Z,2.79
2018-01-20T06:44:14.428Z,2.72
2018-01-20T06:45:14.411Z,2.74
2018-01-20T06:46:14.396Z,2.83
2018-01-20T06:47:14.381Z,2.82
2018-01-20T06:48:14.366Z,2.85
2018-01-20T06:49:14.351Z,2.85
2018-01-20T06:50:14.341Z,2.86
2018-01-20T06:51:14.321Z,2.89
2018-01-20T06:52:14.306Z,2.83
2018-01-20T06:53:14.291Z,2.82
2018-01-20T06:54:14.278Z,2.82
2018-01-20T06:55:14.261Z,2.75
2018-01-20T06:56:14.448Z,2.80
2018-01-20T06:57:14.232Z,2.80
2018-01-20T06:58:14.216Z,2.74
2018-01-20T06:59:14.202Z,2.82
2018-01-20T07:00:14.187Z,2.77
2018-01-20T07:01:14.172Z,2.77
2018-01-20T07:02:14.157Z,2.79
2018-01-20T07:03:14.142Z,2.69
2018-01-20T07:04:14.126Z,2.65
2018-01-20T07:05:14.121Z,2.75
2018-01-20T07:06:14.097Z,2.75
2018-01-20T07:07:14.082Z,2.82
2018-01-20T07:08:14.066Z,2.75
2018-01-20T07:09:14.051Z,2.74
2018-01-20T07:10:14.037Z,2.68
2018-01-20T07:11:14.021Z,2.79
2018-01-20T07:12:14.006Z,2.75
2018-01-20T07:13:13.992Z,2.69
2018-01-20T07:14:13.978Z,2.77
2018-01-20T07:15:13.961Z,2.71
2018-01-20T07:16:13.945Z,2.64
2018-01-20T07:17:13.931Z,2.64
2018-01-20T07:18:13.916Z,2.67
2018-01-20T07:19:13.900Z,2.67
2018-01-20T07:20:13.891Z,2.72
2018-01-20T07:21:13.870Z,2.79
2018-01-20T07:22:13.855Z,2.75
2018-01-20T07:23:13.891Z,2.65
2018-01-20T07:24:13.825Z,2.72
2018-01-20T07:25:13.809Z,2.68
2018-01-20T07:26:13.795Z,2.75
2018-01-20T07:27:13.780Z,2.79
2018-01-20T07:28:13.769Z,2.69
2018-01-20T07:29:13.750Z,2.75
2018-01-20T07:30:13.734Z,2.75
2018-01-20T07:31:13.922Z,2.71
2018-01-20T07:32:13.703Z,2.80
2018-01-20T07:33:13.688Z,2.74
2018-01-20T07:34:13.674Z,2.79
2018-01-20T07:35:13.662Z,2.71
2018-01-20T07:36:13.643Z,2.85
2018-01-20T07:37:13.831Z,2.75
2018-01-20T07:38:13.614Z,2.67
2018-01-20T07:39:13.599Z,2.80
2018-01-20T07:40:13.584Z,2.72
2018-01-20T07:41:13.568Z,2.75
2018-01-20T07:42:13.553Z,2.75
2018-01-20T07:43:13.539Z,2.80
2018-01-20T07:44:13.523Z,2.79
2018-01-20T07:45:13.508Z,2.82
2018-01-20T07:46:13.494Z,2.83
2018-01-20T07:47:13.478Z,2.74
2018-01-20T07:48:13.467Z,2.79
2018-01-20T07:49:13.448Z,2.79
2018-01-20T07:50:13.433Z,2.79
2018-01-20T07:51:13.622Z,2.82
2018-01-20T07:52:13.605Z,2.79
2018-01-20T07:53:13.590Z,2.82
2018-01-20T07:54:13.374Z,2.90
2018-01-20T07:55:13.358Z,2.87
2018-01-20T07:56:13.342Z,2.90
2018-01-20T07:57:13.328Z,2.77
2018-01-20T07:58:13.314Z,2.85
2018-01-20T07:59:13.298Z,2.89
2018-01-20T08:00:13.283Z,2.83
2018-01-20T08:01:13.268Z,2.87
2018-01-20T08:02:13.255Z,2.85
2018-01-20T08:03:13.242Z,2.86
2018-01-20T08:04:13.225Z,2.89
2018-01-20T08:05:13.208Z,2.95
2018-01-20T08:06:13.194Z,2.92
2018-01-20T08:07:13.382Z,2.95
2018-01-20T08:08:13.568Z,2.95
2018-01-20T08:09:13.150Z,3.00
2018-01-20T08:10:13.336Z,3.01
2018-01-20T08:11:13.121Z,3.05
2018-01-20T08:12:13.306Z,2.97
2018-01-20T08:13:13.090Z,3.01
2018-01-20T08:14:13.075Z,3.03
2018-01-20T08:15:13.262Z,3.08
2018-01-20T08:16:13.045Z,3.03
2018-01-20T08:17:13.030Z,3.05
2018-01-20T08:18:13.017Z,3.11
2018-01-20T08:19:13.002Z,3.13
2018-01-20T08:20:12.986Z,3.22
2018-01-20T08:21:13.174Z,3.16
2018-01-20T08:22:13.161Z,3.21
2018-01-20T08:23:12.943Z,3.22
2018-01-20T08:24:12.932Z,3.26
2018-01-20T08:25:12.915Z,3.26
2018-01-20T08:26:12.900Z,3.32
2018-01-20T08:27:12.886Z,3.41
2018-01-20T08:28:12.871Z,3.36
2018-01-20T08:29:12.857Z,3.41
2018-01-20T08:30:12.844Z,3.42
2018-01-20T08:31:12.831Z,3.41
2018-01-20T08:32:13.017Z,3.41
2018-01-20T08:33:12.801Z,3.37
2018-01-20T08:34:12.787Z,3.47
2018-01-20T08:35:12.775Z,3.42
2018-01-20T08:36:12.770Z,3.50
2018-01-20T08:37:12.745Z,3.48
2018-01-20T08:38:12.732Z,3.42
2018-01-20T08:39:12.717Z,3.42
2018-01-20T08:40:12.703Z,3.44
2018-01-20T08:41:12.690Z,3.47
2018-01-20T08:42:12.675Z,3.42
2018-01-20T08:43:12.662Z,3.56
2018-01-20T08:44:12.690Z,3.59
2018-01-20T08:45:12.633Z,3.55
2018-01-20T08:46:12.626Z,3.56
2018-01-20T08:47:12.607Z,3.53
2018-01-20T08:48:12.593Z,3.58
2018-01-20T08:49:12.580Z,3.66
2018-01-20T08:50:12.565Z,3.63
2018-01-20T08:51:12.552Z,3.65
2018-01-20T08:52:12.539Z,3.65
2018-01-20T08:53:12.524Z,3.81
2018-01-20T08:54:12.512Z,3.84
2018-01-20T08:55:12.500Z,3.87
2018-01-20T08:56:12.483Z,3.74
2018-01-20T08:57:12.672Z,3.78
2018-01-20T08:58:12.456Z,3.81
2018-01-20T08:59:12.442Z,3.78
2018-01-20T09:00:12.428Z,3.78
2018-01-20T09:01:12.617Z,3.80
2018-01-20T09:02:12.402Z,3.84
2018-01-20T09:03:12.389Z,3.86
2018-01-20T09:04:12.374Z,3.86
2018-01-20T09:05:12.361Z,3.88
2018-01-20T09:06:12.753Z,3.86
2018-01-20T09:07:12.334Z,3.86
2018-01-20T09:08:12.319Z,3.87
2018-01-20T09:09:12.306Z,3.80
2018-01-20T09:10:12.293Z,3.81
2018-01-20T09:11:12.280Z,3.84
2018-01-20T09:12:12.266Z,3.91
2018-01-20T09:13:12.253Z,3.87
2018-01-20T09:14:12.239Z,3.86
2018-01-20T09:15:12.428Z,3.96
2018-01-20T09:16:12.213Z,3.84
2018-01-20T09:17:12.197Z,3.95
2018-01-20T09:18:12.184Z,3.92
2018-01-20T09:19:12.171Z,3.88
2018-01-20T09:20:12.157Z,3.98
2018-01-20T09:21:12.346Z,3.96
2018-01-20T09:22:12.130Z,3.99
2018-01-20T09:23:12.117Z,3.87
2018-01-20T09:24:12.105Z,3.94
2018-01-20T09:25:12.089Z,3.95
2018-01-20T09:26:12.076Z,3.92
2018-01-20T09:27:12.063Z,3.86
2018-01-20T09:28:12.452Z,3.88
2018-01-20T09:29:12.036Z,3.74
2018-01-20T09:30:12.023Z,3.74
2018-01-20T09:31:12.243Z,3.70
2018-01-20T09:32:11.994Z,3.66
2018-01-20T09:33:11.980Z,3.65
2018-01-20T09:34:11.966Z,3.65
2018-01-20T09:35:11.954Z,3.63
2018-01-20T09:36:11.939Z,3.60
2018-01-20T09:37:12.344Z,3.62
2018-01-20T09:38:11.911Z,3.66
2018-01-20T09:39:11.898Z,3.56
2018-01-20T09:40:11.884Z,3.60
2018-01-20T09:41:11.871Z,3.53
2018-01-20T09:42:11.856Z,3.47
2018-01-20T09:43:11.842Z,3.42
2018-01-20T09:44:11.830Z,3.44
2018-01-20T09:45:12.017Z,3.44
2018-01-20T09:46:11.801Z,3.44
2018-01-20T09:47:11.789Z,3.45
2018-01-20T09:48:11.773Z,3.45
2018-01-20T09:49:11.760Z,3.36
2018-01-20T09:50:11.746Z,3.31
2018-01-20T09:51:11.732Z,3.31
2018-01-20T09:52:11.718Z,3.32
2018-01-20T09:53:11.711Z,3.23
2018-01-20T09:54:11.894Z,3.25
2018-01-20T09:55:11.880Z,3.22
2018-01-20T09:56:11.865Z,3.19
2018-01-20T09:57:11.700Z,3.18
2018-01-20T09:58:11.838Z,3.21
2018-01-20T09:59:11.622Z,3.16
2018-01-20T10:00:11.607Z,3.23
2018-01-20T10:01:11.594Z,3.21
2018-01-20T10:02:11.580Z,3.16
2018-01-20T10:03:11.769Z,3.18
2018-01-20T10:04:11.553Z,3.23
2018-01-20T10:05:11.538Z,3.28
2018-01-20T10:06:11.526Z,3.28
2018-01-20T10:07:11.511Z,3.21
2018-01-20T10:08:11.497Z,3.25
2018-01-20T10:09:11.485Z,3.31
2018-01-20T10:10:11.470Z,3.31
2018-01-20T10:11:11.461Z,3.37
2018-01-20T10:12:11.644Z,3.45
2018-01-20T10:13:11.632Z,3.34
2018-01-20T10:14:11.416Z,3.34
2018-01-20T10:15:11.405Z,3.40
2018-01-20T10:16:11.389Z,3.41
2018-01-20T10:17:11.375Z,3.44
2018-01-20T10:18:11.361Z,3.42
2018-01-20T10:19:11.550Z,3.44
2018-01-20T10:20:11.334Z,3.44
2018-01-20T10:21:11.319Z,3.44
2018-01-20T10:22:11.306Z,3.45
2018-01-20T10:23:11.293Z,3.40
2018-01-20T10:24:11.286Z,3.45
2018-01-20T10:25:11.273Z,3.45
2018-01-20T10:26:11.252Z,3.44
2018-01-20T10:27:11.238Z,3.41
2018-01-20T10:28:11.432Z,3.51
2018-01-20T10:29:11.211Z,3.50
2018-01-20T10:30:11.198Z,3.58
2018-01-20T10:31:11.185Z,3.44
2018-01-20T10:32:11.172Z,3.53
2018-01-20T10:33:11.158Z,3.59
2018-01-20T10:34:11.346Z,3.56
2018-01-20T10:35:11.333Z,3.45
2018-01-20T10:36:11.117Z,3.53
2018-01-20T10:37:11.104Z,3.42
2018-01-20T10:38:11.091Z,3.44
2018-01-20T10:39:11.077Z,3.53
2018-01-20T10:40:11.068Z,3.44
2018-01-20T10:41:11.050Z,3.42
2018-01-20T10:42:11.241Z,3.48
2018-01-20T10:43:11.024Z,3.40
2018-01-20T10:44:11.010Z,3.40
2018-01-20T10:45:10.995Z,3.42
2018-01-20T10:46:10.982Z,3.47
2018-01-20T10:47:10.969Z,3.44
2018-01-20T10:48:10.954Z,3.37
2018-01-20T10:49:10.941Z,3.48
2018-01-20T10:50:10.928Z,3.42
2018-01-20T10:51:10.914Z,3.41
2018-01-20T10:52:10.898Z,3.50
2018-01-20T10:53:10.885Z,3.41
2018-01-20T10:54:10.872Z,3.44
2018-01-20T10:55:10.859Z,3.42
2018-01-20T10:56:10.844Z,3.41
2018-01-20T10:57:10.831Z,3.50
2018-01-20T10:58:10.818Z,3.47
2018-01-20T10:59:10.804Z,3.47
2018-01-20T11:00:10.789Z,3.42
2018-01-20T11:01:10.980Z,3.42
2018-01-20T11:02:10.763Z,3.37
2018-01-20T11:03:10.749Z,3.40
2018-01-20T11:04:10.735Z,3.36
2018-01-20T11:05:10.721Z,3.32
2018-01-20T11:06:10.709Z,3.42
2018-01-20T11:07:10.696Z,3.37
2018-01-20T11:08:10.680Z,3.41
2018-01-20T11:09:10.667Z,3.50
2018-01-20T11:10:10.653Z,3.47
2018-01-20T11:11:10.640Z,3.50
2018-01-20T11:12:10.626Z,3.47
2018-01-20T11:13:10.614Z,3.44
2018-01-20T11:14:10.600Z,3.36
2018-01-20T11:15:10.790Z,3.37
2018-01-20T11:16:10.573Z,3.45
2018-01-20T11:17:10.559Z,3.47
2018-01-20T11:18:10.545Z,3.45
2018-01-20T11:19:10.537Z,3.44
2018-01-20T11:20:10.518Z,3.40
2018-01-20T11:21:10.505Z,3.23
2018-01-20T11:22:10.695Z,3.21
2018-01-20T11:23:10.479Z,3.22
2018-01-20T11:24:10.464Z,3.22
2018-01-20T11:25:10.451Z,3.36
2018-01-20T11:26:10.484Z,3.23
2018-01-20T11:27:10.423Z,3.28
2018-01-20T11:28:10.409Z,3.28
2018-01-20T11:29:10.396Z,3.21
2018-01-20T11:30:10.383Z,3.22
2018-01-20T11:31:10.370Z,3.26
2018-01-20T11:32:10.355Z,3.21
2018-01-20T11:33:10.342Z,3.28
2018-01-20T11:34:10.331Z,3.28
2018-01-20T11:35:10.518Z,3.22
2018-01-20T11:36:10.503Z,3.13
2018-01-20T11:37:10.288Z,3.10
2018-01-20T11:38:10.274Z,3.08
2018-01-20T11:39:10.261Z,3.05
2018-01-20T11:40:10.246Z,3.14
2018-01-20T11:41:10.233Z,3.14
2018-01-20T11:42:10.220Z,3.08
2018-01-20T11:43:10.205Z,3.10
2018-01-20T11:44:10.191Z,3.00
2018-01-20T11:45:10.177Z,3.04
2018-01-20T11:46:10.366Z,3.03
2018-01-20T11:47:10.150Z,2.97
2018-01-20T11:48:10.137Z,3.00
2018-01-20T11:49:10.121Z,2.95
2018-01-20T11:50:10.108Z,3.01
2018-01-20T11:51:10.094Z,2.97
2018-01-20T11:52:10.080Z,2.97
2018-01-20T11:53:10.065Z,2.97
2018-01-20T11:54:10.255Z,2.92
2018-01-20T11:55:10.239Z,2.82
2018-01-20T11:56:10.024Z,2.86
2018-01-20T11:57:10.009Z,2.95
2018-01-20T11:58:09.996Z,2.87
2018-01-20T11:59:09.982Z,2.80
2018-01-20T12:00:09.967Z,2.87
2018-01-20T12:01:09.954Z,2.85
2018-01-20T12:02:09.939Z,2.85
2018-01-20T12:03:09.924Z,2.90
2018-01-20T12:04:10.112Z,2.89
2018-01-20T12:05:09.897Z,2.85
2018-01-20T12:06:09.886Z,2.85
2018-01-20T12:07:09.873Z,2.93
2018-01-20T12:08:10.057Z,2.85
2018-01-20T12:09:09.840Z,2.92
2018-01-20T12:10:09.838Z,3.00
2018-01-20T12:11:09.812Z,3.01
2018-01-20T12:12:09.797Z,3.01
2018-01-20T12:13:09.784Z,3.04
2018-01-20T12:14:09.771Z,3.00
2018-01-20T12:15:09.959Z,2.95
2018-01-20T12:16:09.742Z,3.04
2018-01-20T12:17:09.729Z,2.97
2018-01-20T12:18:09.720Z,3.00
2018-01-20T12:19:09.701Z,2.98
2018-01-20T12:20:09.686Z,2.95
2018-01-20T12:21:09.673Z,2.93
2018-01-20T12:22:09.861Z,2.86
2018-01-20T12:23:09.645Z,2.86
2018-01-20T12:24:09.631Z,2.80
2018-01-20T12:25:09.617Z,2.83
2018-01-20T12:26:09.603Z,2.79
2018-01-20T12:27:09.589Z,2.79
2018-01-20T12:28:09.577Z,2.82
2018-01-20T12:29:09.561Z,2.85
2018-01-20T12:30:09.548Z,2.92
2018-01-20T12:31:09.737Z,2.92
2018-01-20T12:32:09.520Z,2.97
2018-01-20T12:33:09.506Z,2.92
2018-01-20T12:34:09.492Z,2.97
2018-01-20T12:35:09.478Z,2.89
2018-01-20T12:36:09.465Z,2.85
2018-01-20T12:37:09.452Z,2.74
2018-01-20T12:38:09.437Z,2.79
2018-01-20T12:39:09.423Z,2.80
2018-01-20T12:40:09.610Z,2.83
2018-01-20T12:41:09.597Z,2.80
2018-01-20T12:42:09.382Z,2.74
2018-01-20T12:43:09.367Z,2.75
2018-01-20T12:44:09.352Z,2.72
2018-01-20T12:45:09.339Z,2.75
2018-01-20T12:46:09.326Z,2.79
2018-01-20T12:47:09.311Z,2.71
2018-01-20T12:48:09.296Z,2.72
2018-01-20T12:49:09.283Z,2.68
2018-01-20T12:50:09.270Z,2.67
2018-01-20T12:51:09.255Z,2.56
2018-01-20T12:52:09.241Z,2.62
2018-01-20T12:53:09.226Z,2.67
2018-01-20T12:54:09.212Z,2.68
2018-01-20T12:55:09.197Z,2.62
2018-01-20T12:56:09.183Z,2.67
2018-01-20T12:57:09.168Z,2.68
2018-01-20T12:58:09.155Z,2.75
2018-01-20T12:59:09.140Z,2.65
2018-01-20T13:00:09.530Z,2.72
2018-01-20T13:01:09.111Z,2.71
2018-01-20T13:02:09.097Z,2.62
2018-01-20T13:03:09.083Z,2.77
2018-01-20T13:04:09.068Z,2.68
2018-01-20T13:05:09.054Z,2.68
2018-01-20T13:06:09.040Z,2.67
2018-01-20T13:07:09.027Z,2.68
2018-01-20T13:08:09.213Z,2.69
2018-01-20T13:09:08.997Z,2.61
2018-01-20T13:10:08.984Z,2.61
2018-01-20T13:11:08.969Z,2.68
2018-01-20T13:12:08.954Z,2.68
2018-01-20T13:13:08.940Z,2.79
2018-01-20T13:14:08.926Z,2.72
2018-01-20T13:15:08.913Z,2.69
2018-01-20T13:16:08.897Z,2.68
2018-01-20T13:17:08.883Z,2.69
2018-01-20T13:18:08.874Z,2.68